sensor_id;sensor_type;location;lat;lon;timestamp;P1;durP1;ratioP1;P2;durP2;ratioP2
32236;SDS011;18726;44.732;10.550;2023-06-22T00:00:24;14.60;;;13.10;;
32236;SDS011;18726;44.732;10.550;2023-06-22T00:03:28;14.77;;;12.50;;
32236;SDS011;18726;44.732;10.550;2023-06-22T00:06:32;15.82;;;11.07;;
32236;SDS011;18726;44.732;10.550;2023-06-22T00:09:35;12.25;;;11.05;;
32236;SDS011;18726;44.732;10.550;2023-06-22T00:12:39;11.75;;;10.35;;
32236;SDS011;18726;44.732;10.550;2023-06-22T00:15:42;11.25;;;9.98;;
32236;SDS011;18726;44.732;10.550;2023-06-22T00:18:46;14.23;;;10.90;;
32236;SDS011;18726;44.732;10.550;2023-06-22T00:21:50;16.10;;;14.35;;
32236;SDS011;18726;44.732;10.550;2023-06-22T00:24:57;18.27;;;16.35;;
32236;SDS011;18726;44.732;10.550;2023-06-22T00:28:01;13.57;;;12.48;;
32236;SDS011;18726;44.732;10.550;2023-06-22T00:31:05;15.38;;;13.77;;
32236;SDS011;18726;44.732;10.550;2023-06-22T00:34:09;18.13;;;16.17;;
32236;SDS011;18726;44.732;10.550;2023-06-22T00:37:12;19.90;;;17.90;;
32236;SDS011;18726;44.732;10.550;2023-06-22T00:40:16;13.18;;;11.82;;
32236;SDS011;18726;44.732;10.550;2023-06-22T00:43:25;11.52;;;10.40;;
32236;SDS011;18726;44.732;10.550;2023-06-22T00:46:28;16.30;;;14.68;;
32236;SDS011;18726;44.732;10.550;2023-06-22T00:49:32;26.23;;;18.27;;
32236;SDS011;18726;44.732;10.550;2023-06-22T00:52:36;21.25;;;17.85;;
32236;SDS011;18726;44.732;10.550;2023-06-22T00:55:43;14.77;;;13.30;;
32236;SDS011;18726;44.732;10.550;2023-06-22T00:58:50;15.40;;;13.02;;
32236;SDS011;18726;44.732;10.550;2023-06-22T01:01:56;14.93;;;13.23;;
32236;SDS011;18726;44.732;10.550;2023-06-22T01:05:00;18.83;;;15.35;;
32236;SDS011;18726;44.732;10.550;2023-06-22T01:11:38;20.27;;;16.20;;
32236;SDS011;18726;44.732;10.550;2023-06-22T01:14:56;18.83;;;17.00;;
32236;SDS011;18726;44.732;10.550;2023-06-22T01:18:08;18.05;;;15.98;;
32236;SDS011;18726;44.732;10.550;2023-06-22T01:21:15;14.45;;;13.05;;
32236;SDS011;18726;44.732;10.550;2023-06-22T01:24:30;16.52;;;13.63;;
32236;SDS011;18726;44.732;10.550;2023-06-22T01:28:05;16.70;;;14.95;;
32236;SDS011;18726;44.732;10.550;2023-06-22T01:31:31;16.57;;;14.50;;
32236;SDS011;18726;44.732;10.550;2023-06-22T01:34:38;15.40;;;12.35;;
32236;SDS011;18726;44.732;10.550;2023-06-22T01:37:43;16.23;;;14.27;;
32236;SDS011;18726;44.732;10.550;2023-06-22T01:40:48;20.90;;;16.92;;
32236;SDS011;18726;44.732;10.550;2023-06-22T01:43:54;23.65;;;19.55;;
32236;SDS011;18726;44.732;10.550;2023-06-22T01:46:59;25.90;;;20.73;;
32236;SDS011;18726;44.732;10.550;2023-06-22T01:50:04;23.13;;;20.83;;
32236;SDS011;18726;44.732;10.550;2023-06-22T01:53:10;19.77;;;15.75;;
32236;SDS011;18726;44.732;10.550;2023-06-22T01:56:15;17.42;;;15.40;;
32236;SDS011;18726;44.732;10.550;2023-06-22T01:59:25;16.80;;;15.05;;
32236;SDS011;18726;44.732;10.550;2023-06-22T02:06:03;17.05;;;15.55;;
32236;SDS011;18726;44.732;10.550;2023-06-22T02:09:09;17.38;;;15.27;;
32236;SDS011;18726;44.732;10.550;2023-06-22T02:12:18;17.45;;;15.90;;
32236;SDS011;18726;44.732;10.550;2023-06-22T02:15:27;15.40;;;13.82;;
32236;SDS011;18726;44.732;10.550;2023-06-22T02:18:32;19.08;;;16.55;;
32236;SDS011;18726;44.732;10.550;2023-06-22T02:21:39;18.30;;;14.45;;
32236;SDS011;18726;44.732;10.550;2023-06-22T02:24:42;21.08;;;17.80;;
32236;SDS011;18726;44.732;10.550;2023-06-22T02:27:46;20.15;;;14.18;;
32236;SDS011;18726;44.732;10.550;2023-06-22T02:30:49;21.02;;;17.13;;
32236;SDS011;18726;44.732;10.550;2023-06-22T02:33:54;16.55;;;15.05;;
32236;SDS011;18726;44.732;10.550;2023-06-22T02:36:57;16.42;;;14.55;;
32236;SDS011;18726;44.732;10.550;2023-06-22T02:40:06;19.92;;;15.52;;
32236;SDS011;18726;44.732;10.550;2023-06-22T02:43:12;28.63;;;17.40;;
32236;SDS011;18726;44.732;10.550;2023-06-22T02:46:16;15.13;;;13.68;;
32236;SDS011;18726;44.732;10.550;2023-06-22T02:49:20;20.30;;;13.63;;
32236;SDS011;18726;44.732;10.550;2023-06-22T02:52:24;13.60;;;12.20;;
32236;SDS011;18726;44.732;10.550;2023-06-22T02:55:28;20.38;;;18.23;;
32236;SDS011;18726;44.732;10.550;2023-06-22T02:58:34;16.83;;;14.40;;
32236;SDS011;18726;44.732;10.550;2023-06-22T03:01:42;14.80;;;12.75;;
32236;SDS011;18726;44.732;10.550;2023-06-22T03:04:55;17.23;;;13.18;;
32236;SDS011;18726;44.732;10.550;2023-06-22T03:07:59;14.60;;;13.05;;
32236;SDS011;18726;44.732;10.550;2023-06-22T03:11:07;15.50;;;12.30;;
32236;SDS011;18726;44.732;10.550;2023-06-22T03:14:11;17.13;;;11.90;;
32236;SDS011;18726;44.732;10.550;2023-06-22T03:17:14;19.55;;;16.73;;
32236;SDS011;18726;44.732;10.550;2023-06-22T03:20:18;20.52;;;17.65;;
32236;SDS011;18726;44.732;10.550;2023-06-22T03:23:22;20.25;;;18.35;;
32236;SDS011;18726;44.732;10.550;2023-06-22T03:26:26;24.02;;;18.42;;
32236;SDS011;18726;44.732;10.550;2023-06-22T03:29:29;22.80;;;19.90;;
32236;SDS011;18726;44.732;10.550;2023-06-22T03:32:33;22.80;;;20.40;;
32236;SDS011;18726;44.732;10.550;2023-06-22T03:35:37;22.52;;;19.98;;
32236;SDS011;18726;44.732;10.550;2023-06-22T03:38:41;22.95;;;20.00;;
32236;SDS011;18726;44.732;10.550;2023-06-22T03:41:45;20.73;;;18.55;;
32236;SDS011;18726;44.732;10.550;2023-06-22T03:44:49;18.63;;;16.83;;
32236;SDS011;18726;44.732;10.550;2023-06-22T03:47:53;20.30;;;18.20;;
32236;SDS011;18726;44.732;10.550;2023-06-22T03:50:58;23.67;;;17.83;;
32236;SDS011;18726;44.732;10.550;2023-06-22T03:54:03;18.98;;;17.13;;
32236;SDS011;18726;44.732;10.550;2023-06-22T03:57:06;18.23;;;16.42;;
32236;SDS011;18726;44.732;10.550;2023-06-22T04:00:10;20.25;;;14.73;;
32236;SDS011;18726;44.732;10.550;2023-06-22T04:03:18;20.02;;;15.05;;
32236;SDS011;18726;44.732;10.550;2023-06-22T04:06:22;17.30;;;14.13;;
32236;SDS011;18726;44.732;10.550;2023-06-22T04:09:26;19.88;;;15.63;;
32236;SDS011;18726;44.732;10.550;2023-06-22T04:12:30;18.27;;;14.65;;
32236;SDS011;18726;44.732;10.550;2023-06-22T04:15:33;19.40;;;14.98;;
32236;SDS011;18726;44.732;10.550;2023-06-22T04:18:37;16.63;;;14.63;;
32236;SDS011;18726;44.732;10.550;2023-06-22T04:21:44;16.48;;;14.85;;
32236;SDS011;18726;44.732;10.550;2023-06-22T04:24:48;18.38;;;14.70;;
32236;SDS011;18726;44.732;10.550;2023-06-22T04:27:55;18.20;;;14.15;;
32236;SDS011;18726;44.732;10.550;2023-06-22T04:30:59;14.63;;;12.93;;
32236;SDS011;18726;44.732;10.550;2023-06-22T04:34:05;23.83;;;15.27;;
32236;SDS011;18726;44.732;10.550;2023-06-22T04:37:09;16.77;;;14.57;;
32236;SDS011;18726;44.732;10.550;2023-06-22T04:40:18;15.95;;;13.52;;
32236;SDS011;18726;44.732;10.550;2023-06-22T04:43:23;18.67;;;11.88;;
32236;SDS011;18726;44.732;10.550;2023-06-22T04:46:26;15.48;;;13.70;;
32236;SDS011;18726;44.732;10.550;2023-06-22T04:49:30;17.70;;;14.48;;
32236;SDS011;18726;44.732;10.550;2023-06-22T04:52:39;15.43;;;13.57;;
32236;SDS011;18726;44.732;10.550;2023-06-22T04:55:44;18.08;;;14.40;;
32236;SDS011;18726;44.732;10.550;2023-06-22T04:58:48;15.18;;;13.75;;
32236;SDS011;18726;44.732;10.550;2023-06-22T05:01:55;15.70;;;13.95;;
32236;SDS011;18726;44.732;10.550;2023-06-22T05:05:00;25.45;;;14.55;;
32236;SDS011;18726;44.732;10.550;2023-06-22T05:08:03;19.42;;;15.13;;
32236;SDS011;18726;44.732;10.550;2023-06-22T05:11:10;16.00;;;13.98;;
32236;SDS011;18726;44.732;10.550;2023-06-22T05:14:14;15.23;;;12.48;;
32236;SDS011;18726;44.732;10.550;2023-06-22T05:17:17;14.00;;;12.68;;
32236;SDS011;18726;44.732;10.550;2023-06-22T05:20:22;23.05;;;12.57;;
32236;SDS011;18726;44.732;10.550;2023-06-22T05:23:25;14.73;;;12.15;;
32236;SDS011;18726;44.732;10.550;2023-06-22T05:26:33;19.65;;;12.00;;
32236;SDS011;18726;44.732;10.550;2023-06-22T05:29:37;12.60;;;10.82;;
32236;SDS011;18726;44.732;10.550;2023-06-22T05:32:42;15.45;;;10.68;;
32236;SDS011;18726;44.732;10.550;2023-06-22T05:35:47;15.57;;;11.55;;
32236;SDS011;18726;44.732;10.550;2023-06-22T05:38:51;12.85;;;11.23;;
32236;SDS011;18726;44.732;10.550;2023-06-22T05:41:55;12.32;;;10.95;;
32236;SDS011;18726;44.732;10.550;2023-06-22T05:44:59;15.77;;;10.63;;
32236;SDS011;18726;44.732;10.550;2023-06-22T05:48:02;13.88;;;11.07;;
32236;SDS011;18726;44.732;10.550;2023-06-22T05:51:06;15.50;;;9.63;;
32236;SDS011;18726;44.732;10.550;2023-06-22T05:54:09;15.90;;;10.95;;
32236;SDS011;18726;44.732;10.550;2023-06-22T05:57:13;14.90;;;10.85;;
32236;SDS011;18726;44.732;10.550;2023-06-22T06:00:17;15.35;;;10.60;;
32236;SDS011;18726;44.732;10.550;2023-06-22T06:03:21;12.73;;;11.05;;
32236;SDS011;18726;44.732;10.550;2023-06-22T06:06:26;19.48;;;10.75;;
32236;SDS011;18726;44.732;10.550;2023-06-22T06:09:32;15.25;;;10.95;;
32236;SDS011;18726;44.732;10.550;2023-06-22T06:12:36;15.43;;;10.88;;
32236;SDS011;18726;44.732;10.550;2023-06-22T06:15:40;16.88;;;10.55;;
32236;SDS011;18726;44.732;10.550;2023-06-22T06:18:43;14.23;;;9.93;;
32236;SDS011;18726;44.732;10.550;2023-06-22T06:21:47;13.88;;;10.32;;
32236;SDS011;18726;44.732;10.550;2023-06-22T06:24:51;11.90;;;10.23;;
32236;SDS011;18726;44.732;10.550;2023-06-22T06:27:55;13.88;;;10.73;;
32236;SDS011;18726;44.732;10.550;2023-06-22T06:30:59;16.33;;;9.73;;
32236;SDS011;18726;44.732;10.550;2023-06-22T06:34:04;20.40;;;9.02;;
32236;SDS011;18726;44.732;10.550;2023-06-22T06:37:07;18.92;;;9.93;;
32236;SDS011;18726;44.732;10.550;2023-06-22T06:40:11;10.52;;;8.90;;
32236;SDS011;18726;44.732;10.550;2023-06-22T06:43:16;15.90;;;9.25;;
32236;SDS011;18726;44.732;10.550;2023-06-22T06:46:21;9.95;;;7.80;;
32236;SDS011;18726;44.732;10.550;2023-06-22T06:49:24;19.10;;;8.43;;
32236;SDS011;18726;44.732;10.550;2023-06-22T06:52:29;13.27;;;8.65;;
32236;SDS011;18726;44.732;10.550;2023-06-22T06:55:33;12.25;;;7.82;;
32236;SDS011;18726;44.732;10.550;2023-06-22T06:58:36;14.30;;;7.10;;
32236;SDS011;18726;44.732;10.550;2023-06-22T07:01:41;9.07;;;7.07;;
32236;SDS011;18726;44.732;10.550;2023-06-22T07:04:45;9.85;;;6.50;;
32236;SDS011;18726;44.732;10.550;2023-06-22T07:07:50;9.63;;;5.90;;
32236;SDS011;18726;44.732;10.550;2023-06-22T07:10:54;9.75;;;6.57;;
32236;SDS011;18726;44.732;10.550;2023-06-22T07:13:57;7.18;;;5.82;;
32236;SDS011;18726;44.732;10.550;2023-06-22T07:17:04;13.10;;;6.72;;
32236;SDS011;18726;44.732;10.550;2023-06-22T07:20:08;14.48;;;6.95;;
32236;SDS011;18726;44.732;10.550;2023-06-22T07:23:14;16.02;;;6.85;;
32236;SDS011;18726;44.732;10.550;2023-06-22T07:26:18;14.57;;;7.30;;
32236;SDS011;18726;44.732;10.550;2023-06-22T07:29:22;12.38;;;6.85;;
32236;SDS011;18726;44.732;10.550;2023-06-22T07:32:26;16.98;;;6.65;;
32236;SDS011;18726;44.732;10.550;2023-06-22T07:35:31;8.13;;;7.32;;
32236;SDS011;18726;44.732;10.550;2023-06-22T07:38:35;8.55;;;6.43;;
32236;SDS011;18726;44.732;10.550;2023-06-22T07:41:39;10.68;;;6.10;;
32236;SDS011;18726;44.732;10.550;2023-06-22T07:44:46;9.93;;;6.43;;
32236;SDS011;18726;44.732;10.550;2023-06-22T07:47:49;14.20;;;6.70;;
32236;SDS011;18726;44.732;10.550;2023-06-22T07:50:53;9.88;;;6.75;;
32236;SDS011;18726;44.732;10.550;2023-06-22T07:53:57;13.40;;;7.20;;
32236;SDS011;18726;44.732;10.550;2023-06-22T07:57:02;10.70;;;6.43;;
32236;SDS011;18726;44.732;10.550;2023-06-22T08:00:06;8.70;;;6.18;;
32236;SDS011;18726;44.732;10.550;2023-06-22T08:03:18;7.70;;;6.28;;
32236;SDS011;18726;44.732;10.550;2023-06-22T08:06:22;10.55;;;5.78;;
32236;SDS011;18726;44.732;10.550;2023-06-22T08:09:27;9.98;;;6.85;;
32236;SDS011;18726;44.732;10.550;2023-06-22T08:12:32;7.35;;;6.50;;
32236;SDS011;18726;44.732;10.550;2023-06-22T08:15:36;9.25;;;6.63;;
32236;SDS011;18726;44.732;10.550;2023-06-22T08:18:40;11.80;;;6.95;;
32236;SDS011;18726;44.732;10.550;2023-06-22T08:21:44;12.73;;;6.47;;
32236;SDS011;18726;44.732;10.550;2023-06-22T08:24:47;7.90;;;7.15;;
32236;SDS011;18726;44.732;10.550;2023-06-22T08:27:51;20.25;;;6.75;;
32236;SDS011;18726;44.732;10.550;2023-06-22T08:30:55;8.52;;;6.35;;
32236;SDS011;18726;44.732;10.550;2023-06-22T08:33:58;9.70;;;6.13;;
32236;SDS011;18726;44.732;10.550;2023-06-22T08:37:02;12.18;;;7.05;;
32236;SDS011;18726;44.732;10.550;2023-06-22T08:40:09;11.90;;;6.40;;
32236;SDS011;18726;44.732;10.550;2023-06-22T08:43:13;14.23;;;7.28;;
32236;SDS011;18726;44.732;10.550;2023-06-22T08:46:18;11.35;;;6.65;;
32236;SDS011;18726;44.732;10.550;2023-06-22T08:49:25;9.35;;;7.50;;
32236;SDS011;18726;44.732;10.550;2023-06-22T08:52:29;21.83;;;7.93;;
32236;SDS011;18726;44.732;10.550;2023-06-22T08:55:33;8.82;;;7.68;;
32236;SDS011;18726;44.732;10.550;2023-06-22T08:58:37;10.52;;;8.63;;
32236;SDS011;18726;44.732;10.550;2023-06-22T09:01:41;12.68;;;8.07;;
32236;SDS011;18726;44.732;10.550;2023-06-22T09:04:48;17.08;;;8.43;;
32236;SDS011;18726;44.732;10.550;2023-06-22T09:11:02;10.30;;;7.53;;
32236;SDS011;18726;44.732;10.550;2023-06-22T09:14:05;13.18;;;8.27;;
32236;SDS011;18726;44.732;10.550;2023-06-22T09:17:09;15.30;;;7.50;;
32236;SDS011;18726;44.732;10.550;2023-06-22T09:20:13;14.02;;;7.60;;
32236;SDS011;18726;44.732;10.550;2023-06-22T09:23:18;10.75;;;6.75;;
32236;SDS011;18726;44.732;10.550;2023-06-22T09:26:22;10.90;;;8.05;;
32236;SDS011;18726;44.732;10.550;2023-06-22T09:29:27;10.38;;;7.72;;
32236;SDS011;18726;44.732;10.550;2023-06-22T09:32:30;10.23;;;7.60;;
32236;SDS011;18726;44.732;10.550;2023-06-22T09:35:34;12.00;;;8.35;;
32236;SDS011;18726;44.732;10.550;2023-06-22T09:38:37;11.13;;;7.63;;
32236;SDS011;18726;44.732;10.550;2023-06-22T09:41:41;13.07;;;7.22;;
32236;SDS011;18726;44.732;10.550;2023-06-22T09:44:44;11.13;;;8.20;;
32236;SDS011;18726;44.732;10.550;2023-06-22T09:47:48;10.48;;;8.75;;
32236;SDS011;18726;44.732;10.550;2023-06-22T09:50:51;15.55;;;7.97;;
32236;SDS011;18726;44.732;10.550;2023-06-22T09:53:55;14.60;;;7.93;;
32236;SDS011;18726;44.732;10.550;2023-06-22T09:56:59;12.68;;;7.75;;
32236;SDS011;18726;44.732;10.550;2023-06-22T10:00:03;11.20;;;7.43;;
32236;SDS011;18726;44.732;10.550;2023-06-22T10:03:09;12.48;;;7.88;;
32236;SDS011;18726;44.732;10.550;2023-06-22T10:06:12;9.13;;;8.20;;
32236;SDS011;18726;44.732;10.550;2023-06-22T10:09:16;15.05;;;8.20;;
32236;SDS011;18726;44.732;10.550;2023-06-22T10:12:20;12.25;;;8.40;;
32236;SDS011;18726;44.732;10.550;2023-06-22T10:15:24;12.20;;;8.05;;
32236;SDS011;18726;44.732;10.550;2023-06-22T10:18:30;13.93;;;8.45;;
32236;SDS011;18726;44.732;10.550;2023-06-22T10:21:34;13.15;;;8.77;;
32236;SDS011;18726;44.732;10.550;2023-06-22T10:24:38;14.77;;;8.05;;
32236;SDS011;18726;44.732;10.550;2023-06-22T10:27:47;13.93;;;7.68;;
32236;SDS011;18726;44.732;10.550;2023-06-22T10:30:51;12.80;;;8.75;;
32236;SDS011;18726;44.732;10.550;2023-06-22T10:33:55;9.52;;;7.40;;
32236;SDS011;18726;44.732;10.550;2023-06-22T10:36:59;13.88;;;7.78;;
32236;SDS011;18726;44.732;10.550;2023-06-22T10:40:03;9.70;;;8.15;;
32236;SDS011;18726;44.732;10.550;2023-06-22T10:43:08;14.80;;;7.40;;
32236;SDS011;18726;44.732;10.550;2023-06-22T10:46:12;13.05;;;7.30;;
32236;SDS011;18726;44.732;10.550;2023-06-22T10:49:16;12.77;;;8.10;;
32236;SDS011;18726;44.732;10.550;2023-06-22T10:52:19;16.42;;;7.95;;
32236;SDS011;18726;44.732;10.550;2023-06-22T10:55:22;19.13;;;8.77;;
32236;SDS011;18726;44.732;10.550;2023-06-22T10:58:26;11.70;;;7.80;;
32236;SDS011;18726;44.732;10.550;2023-06-22T11:01:30;13.02;;;8.65;;
32236;SDS011;18726;44.732;10.550;2023-06-22T11:04:37;14.07;;;8.38;;
32236;SDS011;18726;44.732;10.550;2023-06-22T11:07:41;11.68;;;8.43;;
32236;SDS011;18726;44.732;10.550;2023-06-22T11:10:46;13.13;;;7.97;;
32236;SDS011;18726;44.732;10.550;2023-06-22T11:13:50;13.57;;;8.95;;
32236;SDS011;18726;44.732;10.550;2023-06-22T11:16:54;12.93;;;9.82;;
32236;SDS011;18726;44.732;10.550;2023-06-22T11:19:58;13.00;;;9.50;;
32236;SDS011;18726;44.732;10.550;2023-06-22T11:23:04;11.25;;;9.13;;
32236;SDS011;18726;44.732;10.550;2023-06-22T11:26:09;11.80;;;8.55;;
32236;SDS011;18726;44.732;10.550;2023-06-22T11:29:13;12.63;;;9.20;;
32236;SDS011;18726;44.732;10.550;2023-06-22T11:32:16;20.55;;;9.40;;
32236;SDS011;18726;44.732;10.550;2023-06-22T11:35:20;13.27;;;9.50;;
32236;SDS011;18726;44.732;10.550;2023-06-22T11:38:24;14.82;;;9.70;;
32236;SDS011;18726;44.732;10.550;2023-06-22T11:41:27;15.30;;;10.65;;
32236;SDS011;18726;44.732;10.550;2023-06-22T11:44:31;18.52;;;11.57;;
32236;SDS011;18726;44.732;10.550;2023-06-22T11:47:35;20.50;;;11.45;;
32236;SDS011;18726;44.732;10.550;2023-06-22T11:50:39;21.17;;;12.13;;
32236;SDS011;18726;44.732;10.550;2023-06-22T11:53:43;15.35;;;10.85;;
32236;SDS011;18726;44.732;10.550;2023-06-22T11:56:47;18.30;;;11.75;;
32236;SDS011;18726;44.732;10.550;2023-06-22T11:59:51;15.00;;;11.38;;
32236;SDS011;18726;44.732;10.550;2023-06-22T12:02:54;13.15;;;11.82;;
32236;SDS011;18726;44.732;10.550;2023-06-22T12:05:59;13.80;;;11.98;;
32236;SDS011;18726;44.732;10.550;2023-06-22T12:09:02;17.85;;;12.30;;
32236;SDS011;18726;44.732;10.550;2023-06-22T12:12:07;22.92;;;12.93;;
32236;SDS011;18726;44.732;10.550;2023-06-22T12:15:12;14.30;;;12.80;;
32236;SDS011;18726;44.732;10.550;2023-06-22T12:18:16;18.85;;;10.00;;
32236;SDS011;18726;44.732;10.550;2023-06-22T12:21:20;17.30;;;11.95;;
32236;SDS011;18726;44.732;10.550;2023-06-22T12:24:24;19.80;;;12.50;;
32236;SDS011;18726;44.732;10.550;2023-06-22T12:27:27;15.55;;;13.20;;
32236;SDS011;18726;44.732;10.550;2023-06-22T12:30:32;23.05;;;11.90;;
32236;SDS011;18726;44.732;10.550;2023-06-22T12:33:37;21.08;;;11.65;;
32236;SDS011;18726;44.732;10.550;2023-06-22T12:36:40;14.88;;;10.82;;
32236;SDS011;18726;44.732;10.550;2023-06-22T12:39:44;18.63;;;11.32;;
32236;SDS011;18726;44.732;10.550;2023-06-22T12:42:48;18.58;;;12.32;;
32236;SDS011;18726;44.732;10.550;2023-06-22T12:45:53;16.08;;;10.68;;
32236;SDS011;18726;44.732;10.550;2023-06-22T12:48:57;16.00;;;11.57;;
32236;SDS011;18726;44.732;10.550;2023-06-22T12:52:01;16.77;;;13.35;;
32236;SDS011;18726;44.732;10.550;2023-06-22T12:55:05;17.80;;;12.40;;
32236;SDS011;18726;44.732;10.550;2023-06-22T12:58:09;15.55;;;10.60;;
32236;SDS011;18726;44.732;10.550;2023-06-22T13:01:13;27.63;;;12.75;;
32236;SDS011;18726;44.732;10.550;2023-06-22T13:04:17;23.83;;;12.75;;
32236;SDS011;18726;44.732;10.550;2023-06-22T13:07:22;12.65;;;10.65;;
32236;SDS011;18726;44.732;10.550;2023-06-22T13:10:25;17.48;;;10.85;;
32236;SDS011;18726;44.732;10.550;2023-06-22T13:13:29;20.70;;;11.02;;
32236;SDS011;18726;44.732;10.550;2023-06-22T13:16:33;13.07;;;10.27;;
32236;SDS011;18726;44.732;10.550;2023-06-22T13:19:37;22.77;;;10.77;;
32236;SDS011;18726;44.732;10.550;2023-06-22T13:22:41;15.15;;;10.52;;
32236;SDS011;18726;44.732;10.550;2023-06-22T13:25:47;14.82;;;10.65;;
32236;SDS011;18726;44.732;10.550;2023-06-22T13:28:51;18.45;;;9.98;;
32236;SDS011;18726;44.732;10.550;2023-06-22T13:31:55;17.83;;;10.15;;
32236;SDS011;18726;44.732;10.550;2023-06-22T13:35:00;20.23;;;10.45;;
32236;SDS011;18726;44.732;10.550;2023-06-22T13:38:05;20.17;;;10.88;;
32236;SDS011;18726;44.732;10.550;2023-06-22T13:41:08;20.40;;;11.35;;
32236;SDS011;18726;44.732;10.550;2023-06-22T13:44:12;13.55;;;9.52;;
32236;SDS011;18726;44.732;10.550;2023-06-22T13:47:15;15.05;;;10.25;;
32236;SDS011;18726;44.732;10.550;2023-06-22T13:50:19;12.88;;;10.30;;
32236;SDS011;18726;44.732;10.550;2023-06-22T13:53:24;18.75;;;10.48;;
32236;SDS011;18726;44.732;10.550;2023-06-22T13:56:29;14.90;;;12.02;;
32236;SDS011;18726;44.732;10.550;2023-06-22T13:59:32;17.77;;;10.73;;
32236;SDS011;18726;44.732;10.550;2023-06-22T14:02:37;17.25;;;11.23;;
32236;SDS011;18726;44.732;10.550;2023-06-22T14:05:40;12.35;;;9.98;;
32236;SDS011;18726;44.732;10.550;2023-06-22T14:08:44;20.08;;;10.48;;
32236;SDS011;18726;44.732;10.550;2023-06-22T14:11:48;14.85;;;11.18;;
32236;SDS011;18726;44.732;10.550;2023-06-22T14:14:52;16.98;;;11.02;;
32236;SDS011;18726;44.732;10.550;2023-06-22T14:17:56;22.48;;;11.45;;
32236;SDS011;18726;44.732;10.550;2023-06-22T14:20:59;16.02;;;11.85;;
32236;SDS011;18726;44.732;10.550;2023-06-22T14:24:03;21.73;;;11.88;;
32236;SDS011;18726;44.732;10.550;2023-06-22T14:27:07;31.35;;;11.32;;
32236;SDS011;18726;44.732;10.550;2023-06-22T14:30:12;18.67;;;9.88;;
32236;SDS011;18726;44.732;10.550;2023-06-22T14:33:16;19.60;;;10.80;;
32236;SDS011;18726;44.732;10.550;2023-06-22T14:36:19;14.40;;;10.88;;
32236;SDS011;18726;44.732;10.550;2023-06-22T14:39:24;15.93;;;10.60;;
32236;SDS011;18726;44.732;10.550;2023-06-22T14:42:27;15.23;;;10.93;;
32236;SDS011;18726;44.732;10.550;2023-06-22T14:45:33;14.90;;;11.02;;
32236;SDS011;18726;44.732;10.550;2023-06-22T14:48:37;21.50;;;11.98;;
32236;SDS011;18726;44.732;10.550;2023-06-22T14:51:40;18.40;;;11.60;;
32236;SDS011;18726;44.732;10.550;2023-06-22T14:54:44;13.20;;;10.55;;
32236;SDS011;18726;44.732;10.550;2023-06-22T14:57:48;16.42;;;11.90;;
32236;SDS011;18726;44.732;10.550;2023-06-22T15:00:51;12.40;;;10.88;;
32236;SDS011;18726;44.732;10.550;2023-06-22T15:03:55;18.02;;;11.27;;
32236;SDS011;18726;44.732;10.550;2023-06-22T15:06:59;17.27;;;11.30;;
32236;SDS011;18726;44.732;10.550;2023-06-22T15:10:03;22.23;;;12.30;;
32236;SDS011;18726;44.732;10.550;2023-06-22T15:13:07;14.70;;;11.20;;
32236;SDS011;18726;44.732;10.550;2023-06-22T15:16:10;14.23;;;10.63;;
32236;SDS011;18726;44.732;10.550;2023-06-22T15:19:14;13.98;;;10.80;;
32236;SDS011;18726;44.732;10.550;2023-06-22T15:22:18;17.52;;;12.32;;
32236;SDS011;18726;44.732;10.550;2023-06-22T15:25:23;17.58;;;11.43;;
32236;SDS011;18726;44.732;10.550;2023-06-22T15:28:28;15.77;;;10.45;;
32236;SDS011;18726;44.732;10.550;2023-06-22T15:31:32;15.32;;;11.88;;
32236;SDS011;18726;44.732;10.550;2023-06-22T15:34:36;15.18;;;11.45;;
32236;SDS011;18726;44.732;10.550;2023-06-22T15:37:41;17.35;;;12.07;;
32236;SDS011;18726;44.732;10.550;2023-06-22T15:40:45;15.60;;;11.43;;
32236;SDS011;18726;44.732;10.550;2023-06-22T15:43:49;18.40;;;12.25;;
32236;SDS011;18726;44.732;10.550;2023-06-22T15:46:53;15.15;;;11.50;;
32236;SDS011;18726;44.732;10.550;2023-06-22T15:49:57;17.38;;;11.80;;
32236;SDS011;18726;44.732;10.550;2023-06-22T15:53:00;17.88;;;12.38;;
32236;SDS011;18726;44.732;10.550;2023-06-22T15:56:04;14.07;;;10.93;;
32236;SDS011;18726;44.732;10.550;2023-06-22T15:59:08;16.55;;;12.60;;
32236;SDS011;18726;44.732;10.550;2023-06-22T16:02:12;14.93;;;11.85;;
32236;SDS011;18726;44.732;10.550;2023-06-22T16:05:16;24.58;;;15.18;;
32236;SDS011;18726;44.732;10.550;2023-06-22T16:08:20;20.65;;;13.70;;
32236;SDS011;18726;44.732;10.550;2023-06-22T16:11:28;25.65;;;14.15;;
32236;SDS011;18726;44.732;10.550;2023-06-22T16:14:32;18.35;;;12.88;;
32236;SDS011;18726;44.732;10.550;2023-06-22T16:17:37;12.98;;;11.68;;
32236;SDS011;18726;44.732;10.550;2023-06-22T16:20:41;21.83;;;15.35;;
32236;SDS011;18726;44.732;10.550;2023-06-22T16:23:45;17.70;;;13.70;;
32236;SDS011;18726;44.732;10.550;2023-06-22T16:26:51;20.15;;;14.80;;
32236;SDS011;18726;44.732;10.550;2023-06-22T16:29:55;20.05;;;12.73;;
32236;SDS011;18726;44.732;10.550;2023-06-22T16:32:59;26.45;;;13.77;;
32236;SDS011;18726;44.732;10.550;2023-06-22T16:36:05;18.60;;;12.48;;
32236;SDS011;18726;44.732;10.550;2023-06-22T16:39:09;15.13;;;12.50;;
32236;SDS011;18726;44.732;10.550;2023-06-22T16:42:13;14.52;;;12.07;;
32236;SDS011;18726;44.732;10.550;2023-06-22T16:45:17;15.73;;;11.43;;
32236;SDS011;18726;44.732;10.550;2023-06-22T16:48:21;13.93;;;11.25;;
32236;SDS011;18726;44.732;10.550;2023-06-22T16:51:25;23.42;;;12.02;;
32236;SDS011;18726;44.732;10.550;2023-06-22T16:54:29;15.40;;;11.38;;
32236;SDS011;18726;44.732;10.550;2023-06-22T16:57:36;19.85;;;11.38;;
32236;SDS011;18726;44.732;10.550;2023-06-22T17:00:41;15.05;;;11.77;;
32236;SDS011;18726;44.732;10.550;2023-06-22T17:03:48;19.25;;;11.43;;
32236;SDS011;18726;44.732;10.550;2023-06-22T17:07:01;22.52;;;11.70;;
32236;SDS011;18726;44.732;10.550;2023-06-22T17:10:11;17.88;;;11.32;;
32236;SDS011;18726;44.732;10.550;2023-06-22T17:13:15;15.02;;;11.85;;
32236;SDS011;18726;44.732;10.550;2023-06-22T17:16:19;19.38;;;11.23;;
32236;SDS011;18726;44.732;10.550;2023-06-22T17:19:25;22.30;;;11.88;;
32236;SDS011;18726;44.732;10.550;2023-06-22T17:22:29;16.88;;;11.10;;
32236;SDS011;18726;44.732;10.550;2023-06-22T17:25:38;15.40;;;10.95;;
32236;SDS011;18726;44.732;10.550;2023-06-22T17:28:45;16.85;;;11.18;;
32236;SDS011;18726;44.732;10.550;2023-06-22T17:31:51;12.10;;;10.15;;
32236;SDS011;18726;44.732;10.550;2023-06-22T17:34:58;13.90;;;11.10;;
32236;SDS011;18726;44.732;10.550;2023-06-22T17:38:02;15.07;;;11.07;;
32236;SDS011;18726;44.732;10.550;2023-06-22T17:41:10;20.10;;;12.27;;
32236;SDS011;18726;44.732;10.550;2023-06-22T17:44:18;20.88;;;14.65;;
32236;SDS011;18726;44.732;10.550;2023-06-22T17:47:23;18.55;;;11.75;;
32236;SDS011;18726;44.732;10.550;2023-06-22T17:50:30;17.98;;;11.55;;
32236;SDS011;18726;44.732;10.550;2023-06-22T17:53:34;21.95;;;11.50;;
32236;SDS011;18726;44.732;10.550;2023-06-22T17:56:40;14.95;;;12.10;;
32236;SDS011;18726;44.732;10.550;2023-06-22T17:59:50;20.25;;;11.93;;